sensor_id;sensor_type;location;lat;lon;timestamp;temperature;humidity
33067;DHT22;19428;49.024;8.366;2023-05-07T00:00:20;14.20;99.90
33067;DHT22;19428;49.024;8.366;2023-05-07T00:02:46;14.00;99.90
33067;DHT22;19428;49.024;8.366;2023-05-07T00:05:13;13.90;99.90
33067;DHT22;19428;49.024;8.366;2023-05-07T00:07:40;14.00;99.90
33067;DHT22;19428;49.024;8.366;2023-05-07T00:10:07;13.90;99.90
33067;DHT22;19428;49.024;8.366;2023-05-07T00:12:33;14.00;99.90
33067;DHT22;19428;49.024;8.366;2023-05-07T00:15:05;14.10;99.90
33067;DHT22;19428;49.024;8.366;2023-05-07T00:17:32;14.10;99.90
33067;DHT22;19428;49.024;8.366;2023-05-07T00:19:57;14.10;99.90
33067;DHT22;19428;49.024;8.366;2023-05-07T00:22:24;14.00;99.90
33067;DHT22;19428;49.024;8.366;2023-05-07T00:24:50;13.90;99.90
33067;DHT22;19428;49.024;8.366;2023-05-07T00:27:16;13.90;99.90
33067;DHT22;19428;49.024;8.366;2023-05-07T00:29:41;13.80;99.90
33067;DHT22;19428;49.024;8.366;2023-05-07T00:32:07;13.90;99.90
33067;DHT22;19428;49.024;8.366;2023-05-07T00:34:33;13.90;99.90
33067;DHT22;19428;49.024;8.366;2023-05-07T00:36:58;13.90;99.90
33067;DHT22;19428;49.024;8.366;2023-05-07T00:39:24;13.80;99.90
33067;DHT22;19428;49.024;8.366;2023-05-07T00:41:49;13.80;99.90
33067;DHT22;19428;49.024;8.366;2023-05-07T00:44:16;13.80;99.90
33067;DHT22;19428;49.024;8.366;2023-05-07T00:46:43;13.80;99.90
33067;DHT22;19428;49.024;8.366;2023-05-07T00:49:10;13.70;99.90
33067;DHT22;19428;49.024;8.366;2023-05-07T00:51:36;13.80;99.90
33067;DHT22;19428;49.024;8.366;2023-05-07T00:54:02;13.80;99.90
33067;DHT22;19428;49.024;8.366;2023-05-07T00:56:28;13.80;99.90
33067;DHT22;19428;49.024;8.366;2023-05-07T00:58:54;13.70;99.90
33067;DHT22;19428;49.024;8.366;2023-05-07T01:01:20;13.70;99.90
33067;DHT22;19428;49.024;8.366;2023-05-07T01:03:46;13.70;99.90
33067;DHT22;19428;49.024;8.366;2023-05-07T01:06:13;13.70;99.90
33067;DHT22;19428;49.024;8.366;2023-05-07T01:08:42;13.80;99.90
33067;DHT22;19428;49.024;8.366;2023-05-07T01:11:08;13.80;99.90
33067;DHT22;19428;49.024;8.366;2023-05-07T01:13:35;13.80;99.90
33067;DHT22;19428;49.024;8.366;2023-05-07T01:16:02;13.80;99.90
33067;DHT22;19428;49.024;8.366;2023-05-07T01:18:28;13.70;99.90
33067;DHT22;19428;49.024;8.366;2023-05-07T01:20:57;13.60;99.90
33067;DHT22;19428;49.024;8.366;2023-05-07T01:23:25;13.50;99.90
33067;DHT22;19428;49.024;8.366;2023-05-07T01:25:52;13.60;99.90
33067;DHT22;19428;49.024;8.366;2023-05-07T01:28:19;13.50;99.90
33067;DHT22;19428;49.024;8.366;2023-05-07T01:30:48;13.50;99.90
33067;DHT22;19428;49.024;8.366;2023-05-07T01:33:20;13.50;99.90
33067;DHT22;19428;49.024;8.366;2023-05-07T01:35:52;13.50;99.90
33067;DHT22;19428;49.024;8.366;2023-05-07T01:38:18;13.60;99.90
33067;DHT22;19428;49.024;8.366;2023-05-07T01:40:46;13.50;99.90
33067;DHT22;19428;49.024;8.366;2023-05-07T01:43:12;13.50;99.90
33067;DHT22;19428;49.024;8.366;2023-05-07T01:45:38;13.40;99.90
33067;DHT22;19428;49.024;8.366;2023-05-07T01:48:04;13.30;99.90
33067;DHT22;19428;49.024;8.366;2023-05-07T01:50:30;13.30;99.90
33067;DHT22;19428;49.024;8.366;2023-05-07T01:52:56;13.30;99.90
33067;DHT22;19428;49.024;8.366;2023-05-07T01:55:22;13.30;99.90
33067;DHT22;19428;49.024;8.366;2023-05-07T01:57:49;13.20;99.90
33067;DHT22;19428;49.024;8.366;2023-05-07T02:00:15;13.20;99.90
33067;DHT22;19428;49.024;8.366;2023-05-07T02:02:42;13.10;99.90
33067;DHT22;19428;49.024;8.366;2023-05-07T02:05:09;13.10;99.90
33067;DHT22;19428;49.024;8.366;2023-05-07T02:07:35;13.20;99.90
33067;DHT22;19428;49.024;8.366;2023-05-07T02:10:01;13.10;99.90
33067;DHT22;19428;49.024;8.366;2023-05-07T02:12:27;13.10;99.90
33067;DHT22;19428;49.024;8.366;2023-05-07T02:14:52;13.00;99.90
33067;DHT22;19428;49.024;8.366;2023-05-07T02:17:18;13.00;99.90
33067;DHT22;19428;49.024;8.366;2023-05-07T02:19:44;13.00;99.90
33067;DHT22;19428;49.024;8.366;2023-05-07T02:22:10;12.90;99.90
33067;DHT22;19428;49.024;8.366;2023-05-07T02:24:35;13.00;99.90
33067;DHT22;19428;49.024;8.366;2023-05-07T02:27:03;12.90;99.90
33067;DHT22;19428;49.024;8.366;2023-05-07T02:29:29;12.80;99.90
33067;DHT22;19428;49.024;8.366;2023-05-07T02:31:55;12.70;99.90
33067;DHT22;19428;49.024;8.366;2023-05-07T02:34:20;12.80;99.90
33067;DHT22;19428;49.024;8.366;2023-05-07T02:36:46;12.80;99.90
33067;DHT22;19428;49.024;8.366;2023-05-07T02:39:13;12.80;99.90
33067;DHT22;19428;49.024;8.366;2023-05-07T02:41:38;12.70;99.90
33067;DHT22;19428;49.024;8.366;2023-05-07T02:44:04;12.70;99.90
33067;DHT22;19428;49.024;8.366;2023-05-07T02:46:30;12.70;99.90
33067;DHT22;19428;49.024;8.366;2023-05-07T02:48:55;12.60;99.90
33067;DHT22;19428;49.024;8.366;2023-05-07T02:51:22;12.70;99.90
33067;DHT22;19428;49.024;8.366;2023-05-07T02:53:48;12.70;99.90
33067;DHT22;19428;49.024;8.366;2023-05-07T02:56:14;12.70;99.90
33067;DHT22;19428;49.024;8.366;2023-05-07T02:58:40;12.70;99.90
33067;DHT22;19428;49.024;8.366;2023-05-07T03:01:06;12.60;99.90
33067;DHT22;19428;49.024;8.366;2023-05-07T03:03:32;12.60;99.90
33067;DHT22;19428;49.024;8.366;2023-05-07T03:05:57;12.60;99.90
33067;DHT22;19428;49.024;8.366;2023-05-07T03:08:23;12.60;99.90
33067;DHT22;19428;49.024;8.366;2023-05-07T03:10:49;12.60;99.90
33067;DHT22;19428;49.024;8.366;2023-05-07T03:13:16;12.50;99.90
33067;DHT22;19428;49.024;8.366;2023-05-07T03:15:42;12.60;99.90
33067;DHT22;19428;49.024;8.366;2023-05-07T03:18:07;12.60;99.90
33067;DHT22;19428;49.024;8.366;2023-05-07T03:20:33;12.50;99.90
33067;DHT22;19428;49.024;8.366;2023-05-07T03:22:59;12.60;99.90
33067;DHT22;19428;49.024;8.366;2023-05-07T03:25:24;12.60;99.90
33067;DHT22;19428;49.024;8.366;2023-05-07T03:27:50;12.60;99.90
33067;DHT22;19428;49.024;8.366;2023-05-07T03:30:16;12.60;99.90
33067;DHT22;19428;49.024;8.366;2023-05-07T03:32:42;12.70;99.90
33067;DHT22;19428;49.024;8.366;2023-05-07T03:35:08;12.70;99.90
33067;DHT22;19428;49.024;8.366;2023-05-07T03:37:33;12.60;99.90
33067;DHT22;19428;49.024;8.366;2023-05-07T03:39:59;12.60;99.90
33067;DHT22;19428;49.024;8.366;2023-05-07T03:42:25;12.60;99.90
33067;DHT22;19428;49.024;8.366;2023-05-07T03:44:51;12.60;99.90
33067;DHT22;19428;49.024;8.366;2023-05-07T03:47:16;12.60;99.90
33067;DHT22;19428;49.024;8.366;2023-05-07T03:49:42;12.60;99.90
33067;DHT22;19428;49.024;8.366;2023-05-07T03:52:07;12.60;99.90
33067;DHT22;19428;49.024;8.366;2023-05-07T03:54:33;12.60;99.90
33067;DHT22;19428;49.024;8.366;2023-05-07T03:56:58;12.60;99.90
33067;DHT22;19428;49.024;8.366;2023-05-07T03:59:24;12.60;99.90
33067;DHT22;19428;49.024;8.366;2023-05-07T04:01:49;12.50;99.90
33067;DHT22;19428;49.024;8.366;2023-05-07T04:04:15;12.50;99.90
33067;DHT22;19428;49.024;8.366;2023-05-07T04:06:41;12.50;99.90
33067;DHT22;19428;49.024;8.366;2023-05-07T04:09:07;12.50;99.90
33067;DHT22;19428;49.024;8.366;2023-05-07T04:11:33;12.50;99.90
33067;DHT22;19428;49.024;8.366;2023-05-07T04:13:58;12.50;99.90
33067;DHT22;19428;49.024;8.366;2023-05-07T04:16:24;12.50;99.90
33067;DHT22;19428;49.024;8.366;2023-05-07T04:18:50;12.50;99.90
33067;DHT22;19428;49.024;8.366;2023-05-07T04:21:19;12.50;99.90
33067;DHT22;19428;49.024;8.366;2023-05-07T04:23:49;12.50;99.90
33067;DHT22;19428;49.024;8.366;2023-05-07T04:26:15;12.50;99.90
33067;DHT22;19428;49.024;8.366;2023-05-07T04:28:41;12.50;99.90
33067;DHT22;19428;49.024;8.366;2023-05-07T04:31:07;12.60;99.90
33067;DHT22;19428;49.024;8.366;2023-05-07T04:33:33;12.60;99.90
33067;DHT22;19428;49.024;8.366;2023-05-07T04:36:01;12.60;99.90
33067;DHT22;19428;49.024;8.366;2023-05-07T04:38:29;12.70;99.90
33067;DHT22;19428;49.024;8.366;2023-05-07T04:40:55;12.60;99.90
33067;DHT22;19428;49.024;8.366;2023-05-07T04:43:21;12.70;99.90
33067;DHT22;19428;49.024;8.366;2023-05-07T04:45:47;12.70;99.90
33067;DHT22;19428;49.024;8.366;2023-05-07T04:48:12;12.90;99.90
33067;DHT22;19428;49.024;8.366;2023-05-07T04:50:40;12.90;99.90
33067;DHT22;19428;49.024;8.366;2023-05-07T04:53:06;12.80;99.90
33067;DHT22;19428;49.024;8.366;2023-05-07T04:55:31;12.80;99.90
33067;DHT22;19428;49.024;8.366;2023-05-07T04:57:57;12.80;99.90
33067;DHT22;19428;49.024;8.366;2023-05-07T05:00:22;12.80;99.90
33067;DHT22;19428;49.024;8.366;2023-05-07T05:02:48;12.90;99.90
33067;DHT22;19428;49.024;8.366;2023-05-07T05:05:14;12.90;99.90
33067;DHT22;19428;49.024;8.366;2023-05-07T05:07:39;13.00;99.90
33067;DHT22;19428;49.024;8.366;2023-05-07T05:10:05;12.90;99.90
33067;DHT22;19428;49.024;8.366;2023-05-07T05:12:31;13.00;99.90
33067;DHT22;19428;49.024;8.366;2023-05-07T05:14:56;13.10;99.90
33067;DHT22;19428;49.024;8.366;2023-05-07T05:17:22;13.20;99.90
33067;DHT22;19428;49.024;8.366;2023-05-07T05:19:47;13.20;99.90
33067;DHT22;19428;49.024;8.366;2023-05-07T05:22:13;13.20;99.90
33067;DHT22;19428;49.024;8.366;2023-05-07T05:24:38;13.20;99.90
33067;DHT22;19428;49.024;8.366;2023-05-07T05:27:05;13.20;99.90
33067;DHT22;19428;49.024;8.366;2023-05-07T05:29:30;13.50;99.90
33067;DHT22;19428;49.024;8.366;2023-05-07T05:31:57;13.80;99.90
33067;DHT22;19428;49.024;8.366;2023-05-07T05:34:22;13.90;99.90
33067;DHT22;19428;49.024;8.366;2023-05-07T05:36:48;13.90;99.90
33067;DHT22;19428;49.024;8.366;2023-05-07T05:39:14;14.20;99.90
33067;DHT22;19428;49.024;8.366;2023-05-07T05:41:39;14.20;99.90
33067;DHT22;19428;49.024;8.366;2023-05-07T05:44:06;14.10;99.90
33067;DHT22;19428;49.024;8.366;2023-05-07T05:46:31;14.20;99.90
33067;DHT22;19428;49.024;8.366;2023-05-07T05:48:58;14.50;99.90
33067;DHT22;19428;49.024;8.366;2023-05-07T05:51:24;14.50;99.90
33067;DHT22;19428;49.024;8.366;2023-05-07T05:53:50;14.60;99.90
33067;DHT22;19428;49.024;8.366;2023-05-07T05:56:16;14.70;99.90
33067;DHT22;19428;49.024;8.366;2023-05-07T05:58:43;14.60;99.90
33067;DHT22;19428;49.024;8.366;2023-05-07T06:01:09;14.60;99.90
33067;DHT22;19428;49.024;8.366;2023-05-07T06:03:36;14.50;99.90
33067;DHT22;19428;49.024;8.366;2023-05-07T06:06:02;14.70;99.90
33067;DHT22;19428;49.024;8.366;2023-05-07T06:08:30;14.80;99.90
33067;DHT22;19428;49.024;8.366;2023-05-07T06:10:56;14.70;99.90
33067;DHT22;19428;49.024;8.366;2023-05-07T06:13:22;15.00;99.90
33067;DHT22;19428;49.024;8.366;2023-05-07T06:15:49;15.40;99.90
33067;DHT22;19428;49.024;8.366;2023-05-07T06:18:14;15.50;99.90
33067;DHT22;19428;49.024;8.366;2023-05-07T06:20:40;15.60;99.90
33067;DHT22;19428;49.024;8.366;2023-05-07T06:23:06;15.80;99.90
33067;DHT22;19428;49.024;8.366;2023-05-07T06:25:31;15.80;99.90
33067;DHT22;19428;49.024;8.366;2023-05-07T06:27:57;15.80;99.90
33067;DHT22;19428;49.024;8.366;2023-05-07T06:30:22;15.80;99.90
33067;DHT22;19428;49.024;8.366;2023-05-07T06:32:48;16.00;99.90
33067;DHT22;19428;49.024;8.366;2023-05-07T06:35:13;16.20;99.90
33067;DHT22;19428;49.024;8.366;2023-05-07T06:37:39;16.40;99.90
33067;DHT22;19428;49.024;8.366;2023-05-07T06:40:08;16.40;99.90
33067;DHT22;19428;49.024;8.366;2023-05-07T06:42:35;16.40;99.90
33067;DHT22;19428;49.024;8.366;2023-05-07T06:45:00;16.60;99.90
33067;DHT22;19428;49.024;8.366;2023-05-07T06:47:26;16.70;99.90
33067;DHT22;19428;49.024;8.366;2023-05-07T06:49:52;16.60;99.90
33067;DHT22;19428;49.024;8.366;2023-05-07T06:52:17;16.90;99.90
33067;DHT22;19428;49.024;8.366;2023-05-07T06:54:43;16.80;99.90
33067;DHT22;19428;49.024;8.366;2023-05-07T06:57:08;16.70;99.90
33067;DHT22;19428;49.024;8.366;2023-05-07T06:59:34;17.10;99.90
33067;DHT22;19428;49.024;8.366;2023-05-07T07:01:59;17.50;99.90
33067;DHT22;19428;49.024;8.366;2023-05-07T07:04:25;17.50;99.90
33067;DHT22;19428;49.024;8.366;2023-05-07T07:06:53;17.60;99.90
33067;DHT22;19428;49.024;8.366;2023-05-07T07:09:18;17.80;99.90
33067;DHT22;19428;49.024;8.366;2023-05-07T07:11:44;18.40;99.40
33067;DHT22;19428;49.024;8.366;2023-05-07T07:14:10;18.30;97.30
33067;DHT22;19428;49.024;8.366;2023-05-07T07:16:35;18.50;96.50
33067;DHT22;19428;49.024;8.366;2023-05-07T07:19:01;18.40;95.80
33067;DHT22;19428;49.024;8.366;2023-05-07T07:21:26;18.30;96.20
33067;DHT22;19428;49.024;8.366;2023-05-07T07:23:52;18.10;96.80
33067;DHT22;19428;49.024;8.366;2023-05-07T07:26:17;18.20;96.90
33067;DHT22;19428;49.024;8.366;2023-05-07T07:28:44;18.00;96.30
33067;DHT22;19428;49.024;8.366;2023-05-07T07:31:11;17.60;97.50
33067;DHT22;19428;49.024;8.366;2023-05-07T07:33:36;17.50;97.20
33067;DHT22;19428;49.024;8.366;2023-05-07T07:36:02;17.50;97.60
33067;DHT22;19428;49.024;8.366;2023-05-07T07:38:28;18.40;97.70
33067;DHT22;19428;49.024;8.366;2023-05-07T07:40:53;18.80;94.40
33067;DHT22;19428;49.024;8.366;2023-05-07T07:43:19;18.40;93.00
33067;DHT22;19428;49.024;8.366;2023-05-07T07:45:44;18.60;92.60
33067;DHT22;19428;49.024;8.366;2023-05-07T07:48:11;18.30;93.10
33067;DHT22;19428;49.024;8.366;2023-05-07T07:50:37;18.50;93.20
33067;DHT22;19428;49.024;8.366;2023-05-07T07:53:03;18.40;92.40
33067;DHT22;19428;49.024;8.366;2023-05-07T07:55:28;18.70;92.00
33067;DHT22;19428;49.024;8.366;2023-05-07T07:57:54;19.40;89.90
33067;DHT22;19428;49.024;8.366;2023-05-07T08:00:19;18.90;84.10
33067;DHT22;19428;49.024;8.366;2023-05-07T08:02:45;18.70;85.90
33067;DHT22;19428;49.024;8.366;2023-05-07T08:05:11;18.60;85.50
33067;DHT22;19428;49.024;8.366;2023-05-07T08:07:36;18.70;83.90
33067;DHT22;19428;49.024;8.366;2023-05-07T08:10:02;19.00;83.00
33067;DHT22;19428;49.024;8.366;2023-05-07T08:12:28;18.70;87.40
33067;DHT22;19428;49.024;8.366;2023-05-07T08:14:53;18.90;89.70
33067;DHT22;19428;49.024;8.366;2023-05-07T08:17:19;19.00;87.60
33067;DHT22;19428;49.024;8.366;2023-05-07T08:19:47;18.90;87.90
33067;DHT22;19428;49.024;8.366;2023-05-07T08:22:13;19.40;88.00
33067;DHT22;19428;49.024;8.366;2023-05-07T08:24:39;19.60;87.10
33067;DHT22;19428;49.024;8.366;2023-05-07T08:27:06;19.60;84.40
33067;DHT22;19428;49.024;8.366;2023-05-07T08:29:31;19.20;84.80
33067;DHT22;19428;49.024;8.366;2023-05-07T08:31:57;19.00;83.30
33067;DHT22;19428;49.024;8.366;2023-05-07T08:34:22;19.00;82.80
33067;DHT22;19428;49.024;8.366;2023-05-07T08:36:48;19.10;84.30
33067;DHT22;19428;49.024;8.366;2023-05-07T08:39:15;19.00;80.90
33067;DHT22;19428;49.024;8.366;2023-05-07T08:41:46;19.00;81.90
33067;DHT22;19428;49.024;8.366;2023-05-07T08:44:13;18.90;79.50
33067;DHT22;19428;49.024;8.366;2023-05-07T08:46:42;19.20;80.30
33067;DHT22;19428;49.024;8.366;2023-05-07T08:49:11;19.40;78.10
33067;DHT22;19428;49.024;8.366;2023-05-07T08:51:37;19.40;77.40
33067;DHT22;19428;49.024;8.366;2023-05-07T08:54:03;19.30;79.20
33067;DHT22;19428;49.024;8.366;2023-05-07T08:56:30;19.60;80.90
33067;DHT22;19428;49.024;8.366;2023-05-07T08:58:56;19.60;77.10
33067;DHT22;19428;49.024;8.366;2023-05-07T09:01:24;19.60;77.30
33067;DHT22;19428;49.024;8.366;2023-05-07T09:03:50;19.50;77.90
33067;DHT22;19428;49.024;8.366;2023-05-07T09:06:17;19.60;77.00
33067;DHT22;19428;49.024;8.366;2023-05-07T09:08:53;19.60;75.00
33067;DHT22;19428;49.024;8.366;2023-05-07T09:11:22;19.80;73.40
33067;DHT22;19428;49.024;8.366;2023-05-07T09:13:48;19.90;76.20
33067;DHT22;19428;49.024;8.366;2023-05-07T09:16:15;20.10;75.40
33067;DHT22;19428;49.024;8.366;2023-05-07T09:18:42;20.10;75.20
33067;DHT22;19428;49.024;8.366;2023-05-07T09:21:10;20.00;74.50
33067;DHT22;19428;49.024;8.366;2023-05-07T09:23:36;20.30;74.60
33067;DHT22;19428;49.024;8.366;2023-05-07T09:26:01;20.40;75.00
33067;DHT22;19428;49.024;8.366;2023-05-07T09:28:27;20.20;73.70
33067;DHT22;19428;49.024;8.366;2023-05-07T09:30:53;20.10;78.40
33067;DHT22;19428;49.024;8.366;2023-05-07T09:33:18;20.20;74.80
33067;DHT22;19428;49.024;8.366;2023-05-07T09:35:44;20.30;73.10
33067;DHT22;19428;49.024;8.366;2023-05-07T09:38:10;20.50;72.60
33067;DHT22;19428;49.024;8.366;2023-05-07T09:40:35;20.40;70.20
33067;DHT22;19428;49.024;8.366;2023-05-07T09:43:12;20.50;71.60
33067;DHT22;19428;49.024;8.366;2023-05-07T09:45:38;20.50;69.20
33067;DHT22;19428;49.024;8.366;2023-05-07T09:48:05;20.60;73.40
33067;DHT22;19428;49.024;8.366;2023-05-07T09:50:49;20.70;71.00
33067;DHT22;19428;49.024;8.366;2023-05-07T09:53:17;20.60;67.20
33067;DHT22;19428;49.024;8.366;2023-05-07T09:55:43;20.60;65.90
33067;DHT22;19428;49.024;8.366;2023-05-07T09:58:11;20.50;67.50
33067;DHT22;19428;49.024;8.366;2023-05-07T10:00:39;20.80;68.60
33067;DHT22;19428;49.024;8.366;2023-05-07T10:03:06;20.90;65.70
33067;DHT22;19428;49.024;8.366;2023-05-07T10:05:32;21.10;65.50
33067;DHT22;19428;49.024;8.366;2023-05-07T10:07:58;21.10;65.70
33067;DHT22;19428;49.024;8.366;2023-05-07T10:10:24;21.10;61.60
33067;DHT22;19428;49.024;8.366;2023-05-07T10:12:50;21.30;61.10
33067;DHT22;19428;49.024;8.366;2023-05-07T10:15:16;21.30;61.50
33067;DHT22;19428;49.024;8.366;2023-05-07T10:17:42;21.40;61.20
33067;DHT22;19428;49.024;8.366;2023-05-07T10:20:08;21.70;62.10
33067;DHT22;19428;49.024;8.366;2023-05-07T10:22:45;21.70;57.10
33067;DHT22;19428;49.024;8.366;2023-05-07T10:25:18;22.20;56.30
33067;DHT22;19428;49.024;8.366;2023-05-07T10:27:48;22.00;55.00
33067;DHT22;19428;49.024;8.366;2023-05-07T10:30:25;22.10;57.80
33067;DHT22;19428;49.024;8.366;2023-05-07T10:32:55;22.10;54.50
33067;DHT22;19428;49.024;8.366;2023-05-07T10:35:25;22.00;57.10
33067;DHT22;19428;49.024;8.366;2023-05-07T10:37:52;22.00;54.80
33067;DHT22;19428;49.024;8.366;2023-05-07T10:40:19;22.30;55.90
33067;DHT22;19428;49.024;8.366;2023-05-07T10:45:21;23.00;51.60
33067;DHT22;19428;49.024;8.366;2023-05-07T10:50:38;22.40;52.20
33067;DHT22;19428;49.024;8.366;2023-05-07T10:55:51;22.70;50.70
33067;DHT22;19428;49.024;8.366;2023-05-07T11:00:46;23.10;48.70
33067;DHT22;19428;49.024;8.366;2023-05-07T11:03:12;23.30;48.80
33067;DHT22;19428;49.024;8.366;2023-05-07T11:05:38;23.20;44.90
33067;DHT22;19428;49.024;8.366;2023-05-07T11:08:04;23.30;47.70
33067;DHT22;19428;49.024;8.366;2023-05-07T11:10:56;23.50;43.20
33067;DHT22;19428;49.024;8.366;2023-05-07T11:13:42;23.70;47.30
33067;DHT22;19428;49.024;8.366;2023-05-07T11:16:21;23.80;44.50
33067;DHT22;19428;49.024;8.366;2023-05-07T11:18:53;24.10;40.20
33067;DHT22;19428;49.024;8.366;2023-05-07T11:21:41;24.00;40.00
33067;DHT22;19428;49.024;8.366;2023-05-07T11:24:08;24.00;39.00
33067;DHT22;19428;49.024;8.366;2023-05-07T11:26:46;24.30;38.90
33067;DHT22;19428;49.024;8.366;2023-05-07T11:29:14;23.90;36.80
33067;DHT22;19428;49.024;8.366;2023-05-07T11:31:40;23.50;38.00
33067;DHT22;19428;49.024;8.366;2023-05-07T11:34:06;23.70;39.90
33067;DHT22;19428;49.024;8.366;2023-05-07T11:36:33;23.80;38.70
33067;DHT22;19428;49.024;8.366;2023-05-07T11:38:59;24.10;35.90
33067;DHT22;19428;49.024;8.366;2023-05-07T11:41:37;23.90;36.70
33067;DHT22;19428;49.024;8.366;2023-05-07T11:44:03;24.20;35.60
33067;DHT22;19428;49.024;8.366;2023-05-07T11:46:28;24.10;34.20
33067;DHT22;19428;49.024;8.366;2023-05-07T11:48:55;25.40;32.30
33067;DHT22;19428;49.024;8.366;2023-05-07T11:51:23;25.30;30.20
33067;DHT22;19428;49.024;8.366;2023-05-07T11:53:50;25.10;30.00
33067;DHT22;19428;49.024;8.366;2023-05-07T11:56:16;24.90;30.70
33067;DHT22;19428;49.024;8.366;2023-05-07T11:58:43;25.40;30.20
33067;DHT22;19428;49.024;8.366;2023-05-07T12:01:10;25.90;26.80
33067;DHT22;19428;49.024;8.366;2023-05-07T12:03:36;25.00;28.00
33067;DHT22;19428;49.024;8.366;2023-05-07T12:06:05;24.60;28.20
33067;DHT22;19428;49.024;8.366;2023-05-07T12:08:31;24.10;29.20
33067;DHT22;19428;49.024;8.366;2023-05-07T12:10:57;24.10;30.30
33067;DHT22;19428;49.024;8.366;2023-05-07T12:13:24;24.10;29.40
33067;DHT22;19428;49.024;8.366;2023-05-07T12:15:54;24.60;28.90
33067;DHT22;19428;49.024;8.366;2023-05-07T12:18:21;25.10;28.40
33067;DHT22;19428;49.024;8.366;2023-05-07T12:20:47;25.00;26.90
33067;DHT22;19428;49.024;8.366;2023-05-07T12:23:14;25.20;30.60
33067;DHT22;19428;49.024;8.366;2023-05-07T12:25:41;26.00;27.30
33067;DHT22;19428;49.024;8.366;2023-05-07T12:28:17;27.00;23.90
33067;DHT22;19428;49.024;8.366;2023-05-07T12:30:45;27.30;21.90
33067;DHT22;19428;49.024;8.366;2023-05-07T12:33:11;26.70;21.50
33067;DHT22;19428;49.024;8.366;2023-05-07T12:35:41;26.40;23.50
33067;DHT22;19428;49.024;8.366;2023-05-07T12:38:25;25.10;25.20
33067;DHT22;19428;49.024;8.366;2023-05-07T12:40:53;24.50;25.80
33067;DHT22;19428;49.024;8.366;2023-05-07T12:43:29;24.50;27.00
33067;DHT22;19428;49.024;8.366;2023-05-07T12:45:57;24.10;26.40
33067;DHT22;19428;49.024;8.366;2023-05-07T12:48:23;24.10;26.60
33067;DHT22;19428;49.024;8.366;2023-05-07T12:50:56;24.30;25.10
33067;DHT22;19428;49.024;8.366;2023-05-07T12:53:23;24.30;26.00
33067;DHT22;19428;49.024;8.366;2023-05-07T12:55:55;24.50;26.70
33067;DHT22;19428;49.024;8.366;2023-05-07T13:00:49;24.00;27.30
33067;DHT22;19428;49.024;8.366;2023-05-07T13:03:32;24.00;28.20
33067;DHT22;19428;49.024;8.366;2023-05-07T13:06:09;24.40;25.80
33067;DHT22;19428;49.024;8.366;2023-05-07T13:08:40;24.40;25.30
33067;DHT22;19428;49.024;8.366;2023-05-07T13:11:09;24.40;25.50
33067;DHT22;19428;49.024;8.366;2023-05-07T13:13:36;24.60;24.70
33067;DHT22;19428;49.024;8.366;2023-05-07T13:16:03;25.00;23.00
33067;DHT22;19428;49.024;8.366;2023-05-07T13:18:30;24.90;26.00
33067;DHT22;19428;49.024;8.366;2023-05-07T13:20:56;24.40;25.50
33067;DHT22;19428;49.024;8.366;2023-05-07T13:23:22;24.50;28.00
33067;DHT22;19428;49.024;8.366;2023-05-07T13:25:48;25.10;29.50
33067;DHT22;19428;49.024;8.366;2023-05-07T13:28:14;24.70;29.40
33067;DHT22;19428;49.024;8.366;2023-05-07T13:30:39;24.60;29.20
33067;DHT22;19428;49.024;8.366;2023-05-07T13:33:06;24.20;29.40
33067;DHT22;19428;49.024;8.366;2023-05-07T13:35:32;24.40;30.80
33067;DHT22;19428;49.024;8.366;2023-05-07T13:37:58;24.50;28.90
33067;DHT22;19428;49.024;8.366;2023-05-07T13:40:23;24.80;28.30
33067;DHT22;19428;49.024;8.366;2023-05-07T13:42:49;24.40;29.60
33067;DHT22;19428;49.024;8.366;2023-05-07T13:45:15;24.20;30.90
33067;DHT22;19428;49.024;8.366;2023-05-07T13:47:44;24.30;29.50
33067;DHT22;19428;49.024;8.366;2023-05-07T13:50:11;24.50;29.00
33067;DHT22;19428;49.024;8.366;2023-05-07T13:52:42;24.40;30.00
33067;DHT22;19428;49.024;8.366;2023-05-07T13:55:11;24.90;29.20
33067;DHT22;19428;49.024;8.366;2023-05-07T13:57:38;25.50;28.30
33067;DHT22;19428;49.024;8.366;2023-05-07T14:00:04;25.50;22.90
33067;DHT22;19428;49.024;8.366;2023-05-07T14:02:30;24.30;24.30
33067;DHT22;19428;49.024;8.366;2023-05-07T14:04:56;23.90;26.20
33067;DHT22;19428;49.024;8.366;2023-05-07T14:07:22;23.40;25.60
33067;DHT22;19428;49.024;8.366;2023-05-07T14:09:47;23.50;27.30
33067;DHT22;19428;49.024;8.366;2023-05-07T14:12:13;23.60;25.70
33067;DHT22;19428;49.024;8.366;2023-05-07T14:14:38;23.30;27.10
33067;DHT22;19428;49.024;8.366;2023-05-07T14:17:04;23.60;26.90
33067;DHT22;19428;49.024;8.366;2023-05-07T14:19:29;23.40;29.60
33067;DHT22;19428;49.024;8.366;2023-05-07T14:21:55;23.40;31.80
33067;DHT22;19428;49.024;8.366;2023-05-07T14:24:20;23.20;35.50
33067;DHT22;19428;49.024;8.366;2023-05-07T14:26:46;22.90;35.00
33067;DHT22;19428;49.024;8.366;2023-05-07T14:29:11;23.00;34.80
33067;DHT22;19428;49.024;8.366;2023-05-07T14:31:37;22.80;36.50
33067;DHT22;19428;49.024;8.366;2023-05-07T14:34:03;22.70;37.10
33067;DHT22;19428;49.024;8.366;2023-05-07T14:36:28;22.80;37.90
33067;DHT22;19428;49.024;8.366;2023-05-07T14:38:55;22.80;35.00
33067;DHT22;19428;49.024;8.366;2023-05-07T14:41:22;22.70;34.20
33067;DHT22;19428;49.024;8.366;2023-05-07T14:43:48;22.70;35.30
33067;DHT22;19428;49.024;8.366;2023-05-07T14:46:18;22.80;32.70
33067;DHT22;19428;49.024;8.366;2023-05-07T14:48:47;22.90;31.70
33067;DHT22;19428;49.024;8.366;2023-05-07T14:51:13;23.20;31.90
33067;DHT22;19428;49.024;8.366;2023-05-07T14:53:40;23.40;28.80
33067;DHT22;19428;49.024;8.366;2023-05-07T14:56:06;23.40;25.40
33067;DHT22;19428;49.024;8.366;2023-05-07T14:58:39;23.50;25.50
33067;DHT22;19428;49.024;8.366;2023-05-07T15:01:05;23.70;23.80
33067;DHT22;19428;49.024;8.366;2023-05-07T15:03:30;23.00;25.10
33067;DHT22;19428;49.024;8.366;2023-05-07T15:05:56;22.70;25.00
33067;DHT22;19428;49.024;8.366;2023-05-07T15:08:21;22.70;25.20
33067;DHT22;19428;49.024;8.366;2023-05-07T15:10:47;22.50;26.30
33067;DHT22;19428;49.024;8.366;2023-05-07T15:13:13;22.50;27.80
33067;DHT22;19428;49.024;8.366;2023-05-07T15:15:39;22.30;27.80
33067;DHT22;19428;49.024;8.366;2023-05-07T15:18:04;22.80;28.10
33067;DHT22;19428;49.024;8.366;2023-05-07T15:20:30;22.70;27.80
33067;DHT22;19428;49.024;8.366;2023-05-07T15:22:56;22.50;30.60
33067;DHT22;19428;49.024;8.366;2023-05-07T15:25:22;22.60;32.40
33067;DHT22;19428;49.024;8.366;2023-05-07T15:27:48;22.30;36.90
33067;DHT22;19428;49.024;8.366;2023-05-07T15:30:14;22.20;38.90
33067;DHT22;19428;49.024;8.366;2023-05-07T15:32:41;22.00;40.30
33067;DHT22;19428;49.024;8.366;2023-05-07T15:35:07;22.00;42.30
33067;DHT22;19428;49.024;8.366;2023-05-07T15:37:33;22.00;42.50
33067;DHT22;19428;49.024;8.366;2023-05-07T15:39:59;21.90;44.90